Weather at Caribe (Simón Bolívar Internacional) Heliport

Public forecast

Using degrees Celsius for public forecast. Weather courtesy of forecast.io.

Closest aviation weather report (METAR) to Caribe (Simón Bolívar Internacional) Heliport

Closest report is Simón Bolívar International Airport, 0.4 nm (0.7 km) ENE. Retrieved 2022/01/25 11:03 UTC (26 minutes ago):

SVMI 251103Z AUTO 01003KT NCD ///// Q1013

Closest aviation forecast (TAF) to Caribe (Simón Bolívar Internacional) Heliport

Closest forecast is Simón Bolívar International Airport, 0.4 nm (0.7 km) ENE. Retrieved 2022/01/25 06:10 UTC (5 hours ago):

TAF SVMI 250400Z 2506/2606 02005KT 9999 FEW016 TX32/2518Z TN22/2507Z TEMPO 2506/2510 CAVOK FM251100 00000KT 9999 FEW016